Time;durP1;ratioP1;P1;durP2;ratioP2;P2;SDS_P1;SDS_P2;PMS_P1;PMS_P2;Temp;Humidity;BMP_temperature;BMP_pressure;BME280_temperature;BME280_humidity;BME280_pressure;Samples;Min_cycle;Max_cycle;Signal;HPM_P1;HPM_P2
2024/04/24 00:02:15;;;;;;;0.10;0.10;;;;;;;;;;5158150;27;20014;-95
2024/04/24 00:04:40;;;;;;;0.00;0.00;;;;;;;;;;5164397;27;19996;-96
2024/04/24 00:07:06;;;;;;;0.10;0.10;;;;;;;;;;5180874;27;20051;-95
2024/04/24 00:09:32;;;;;;;0.10;0.10;;;;;;;;;;5177311;27;20019;-95
2024/04/24 00:11:58;;;;;;;0.10;0.10;;;;;;;;;;5167718;27;20002;-95
2024/04/24 00:14:25;;;;;;;0.00;0.00;;;;;;;;;;5157191;27;20000;-95
2024/04/24 00:16:51;;;;;;;0.00;0.00;;;;;;;;;;5163574;27;20048;-95
2024/04/24 00:19:17;;;;;;;0.00;0.00;;;;;;;;;;5173138;27;20016;-95
2024/04/24 00:21:43;;;;;;;0.00;0.00;;;;;;;;;;5162807;27;20011;-95
2024/04/24 00:24:14;;;;;;;0.00;0.00;;;;;;;;;;5177965;27;20019;-95
2024/04/24 00:26:40;;;;;;;0.03;0.03;;;;;;;;;;5177846;27;20085;-94
2024/04/24 00:29:05;;;;;;;0.10;0.10;;;;;;;;;;5163995;27;19993;-95
2024/04/24 01:35:29;;;;;;;0.10;0.10;;;5.40;99.90;;;;;;549290;22;20341;-90
2024/04/24 01:37:55;;;;;;;0.10;0.10;;;;;;;;;;5121511;27;20021;-93
2024/04/24 01:40:21;;;;;;;0.00;0.00;;;;;;;;;;5131616;27;20448;-93
2024/04/24 01:46:29;;;;;;;0.00;0.00;;;;;;;;;;5052070;28;20002;-90
2024/04/24 01:48:55;;;;;;;0.03;0.03;;;;;;;;;;5113147;27;20021;-92
2024/04/24 01:51:23;;;;;;;0.10;0.10;;;5.30;99.90;;;;;;5116831;27;20015;-94
2024/04/24 01:53:50;;;;;;;0.10;0.10;;;;;;;;;;5099881;28;20074;-93
2024/04/24 01:56:16;;;;;;;0.03;0.03;;;;;;;;;;5099380;28;20018;-93
2024/04/24 01:58:42;;;;;;;0.10;0.10;;;;;;;;;;5105653;28;20010;-94
2024/04/24 02:01:09;;;;;;;0.10;0.10;;;;;;;;;;5094360;28;19998;-92
2024/04/24 02:03:35;;;;;;;0.00;0.00;;;;;;;;;;5116799;27;20007;-93
2024/04/24 02:06:01;;;;;;;0.10;0.10;;;;;;;;;;5102207;28;20343;-92
2024/04/24 02:08:27;;;;;;;0.10;0.10;;;;;;;;;;5105066;28;20003;-93
2024/04/24 02:10:53;;;;;;;0.10;0.10;;;;;;;;;;5118963;27;20442;-94
2024/04/24 02:13:19;;;;;;;0.10;0.10;;;;;;;;;;5098550;28;19998;-93
2024/04/24 02:15:45;;;;;;;0.10;0.10;;;;;;;;;;5127066;27;20019;-93
2024/04/24 02:18:11;;;;;;;0.10;0.10;;;;;;;;;;5098486;28;20017;-94
2024/04/24 02:20:37;;;;;;;0.00;0.00;;;5.40;99.90;;;;;;5119789;27;20010;-92
2024/04/24 02:23:06;;;;;;;0.03;0.03;;;5.40;99.90;;;;;;5093463;28;20010;-94
2024/04/24 02:25:36;;;;;;;0.10;0.10;;;;;;;;;;5097658;27;20006;-92
2024/04/24 02:28:03;;;;;;;0.10;0.10;;;5.30;99.90;;;;;;5122607;27;20010;-93
2024/04/24 02:30:29;;;;;;;0.00;0.00;;;;;;;;;;5093030;28;20021;-93
2024/04/24 02:32:55;;;;;;;0.00;0.00;;;;;;;;;;5110552;27;20026;-93
2024/04/24 02:35:21;;;;;;;0.10;0.10;;;;;;;;;;5096169;27;20017;-93
2024/04/24 02:37:47;;;;;;;0.10;0.10;;;;;;;;;;5128636;27;20001;-91
2024/04/24 02:40:13;;;;;;;0.08;0.08;;;;;;;;;;5090865;28;20147;-93
2024/04/24 02:42:39;;;;;;;0.05;0.05;;;;;;;;;;5121866;27;20086;-93
2024/04/24 02:45:06;;;;;;;0.00;0.00;;;;;;;;;;5116582;27;20075;-95
2024/04/24 02:47:32;;;;;;;0.10;0.10;;;;;;;;;;5104881;28;20010;-93
2024/04/24 02:49:58;;;;;;;0.10;0.10;;;;;;;;;;5095062;28;20013;-93
2024/04/24 02:52:24;;;;;;;0.10;0.10;;;;;;;;;;5120283;27;20011;-92
2024/04/24 02:54:50;;;;;;;0.00;0.00;;;;;;;;;;5139867;27;20016;-93
2024/04/24 02:57:16;;;;;;;0.10;0.10;;;;;;;;;;5113077;27;20005;-93
2024/04/24 02:59:42;;;;;;;0.10;0.10;;;;;;;;;;5115376;27;20017;-93
2024/04/24 03:02:08;;;;;;;0.10;0.10;;;;;;;;;;5109316;27;20025;-92
2024/04/24 03:04:34;;;;;;;0.10;0.10;;;;;;;;;;5100010;28;20007;-93
2024/04/24 03:07:00;;;;;;;0.10;0.10;;;;;;;;;;5117569;27;20006;-93
2024/04/24 03:09:26;;;;;;;0.10;0.10;;;;;;;;;;5115361;27;20026;-94
2024/04/24 03:11:52;;;;;;;0.00;0.00;;;;;;;;;;5121441;27;20023;-93
2024/04/24 03:14:19;;;;;;;0.10;0.10;;;;;;;;;;5114127;27;20082;-93
2024/04/24 03:16:45;;;;;;;0.10;0.10;;;;;;;;;;5129838;27;20006;-92
2024/04/24 03:19:11;;;;;;;0.00;0.00;;;;;;;;;;5092835;28;20002;-91
2024/04/24 03:21:37;;;;;;;0.00;0.00;;;;;;;;;;5093683;28;20017;-93
2024/04/24 03:24:03;;;;;;;0.10;0.10;;;;;;;;;;5130927;27;20006;-93
2024/04/24 03:26:29;;;;;;;0.10;0.10;;;;;;;;;;5113212;27;20007;-93
2024/04/24 03:28:55;;;;;;;0.10;0.10;;;;;;;;;;5108023;27;20007;-94
2024/04/24 03:31:21;;;;;;;0.03;0.03;;;;;;;;;;5088854;28;20059;-92
2024/04/24 03:33:47;;;;;;;0.00;0.00;;;;;;;;;;5115485;27;20013;-94
2024/04/24 03:36:13;;;;;;;0.00;0.00;;;;;;;;;;5116042;27;20006;-93
2024/04/24 03:38:39;;;;;;;0.10;0.10;;;;;;;;;;5096028;28;20006;-93
2024/04/24 03:41:05;;;;;;;0.10;0.10;;;;;;;;;;5121107;27;20035;-93
2024/04/24 03:43:31;;;;;;;0.00;0.00;;;;;;;;;;5107075;28;20010;-95
2024/04/24 03:51:09;;;;;;;0.10;0.10;;;;;;;;;;5154146;27;20009;-92
2024/04/24 03:53:35;;;;;;;0.00;0.00;;;;;;;;;;5146087;27;20075;-92
2024/04/24 03:56:01;;;;;;;0.00;0.00;;;;;;;;;;5147512;27;20017;-92
2024/04/24 03:58:27;;;;;;;0.10;0.10;;;;;;;;;;5142582;27;20005;-92
2024/04/24 04:00:53;;;;;;;0.03;0.03;;;;;;;;;;5135823;27;20018;-92
2024/04/24 04:03:19;;;;;;;0.00;0.00;;;;;;;;;;5137555;27;20002;-93
2024/04/24 04:05:45;;;;;;;0.10;0.10;;;;;;;;;;5140722;27;20058;-93
2024/04/24 04:08:11;;;;;;;0.00;0.00;;;;;;;;;;5153065;27;20011;-96
2024/04/24 04:10:37;;;;;;;0.10;0.10;;;;;;;;;;5142048;27;20011;-94
2024/04/24 04:13:03;;;;;;;0.10;0.10;;;;;;;;;;5139657;27;20614;-93
2024/04/24 04:15:29;;;;;;;0.10;0.10;;;;;;;;;;5131126;27;20046;-94
2024/04/24 04:17:56;;;;;;;0.00;0.00;;;;;;;;;;5146054;27;20002;-92
2024/04/24 04:20:22;;;;;;;0.10;0.10;;;;;;;;;;5139881;27;20006;-92
2024/04/24 04:22:48;;;;;;;0.10;0.10;;;;;;;;;;5146580;27;20005;-92
2024/04/24 04:25:14;;;;;;;0.00;0.00;;;;;;;;;;5138157;27;20006;-93
2024/04/24 04:27:40;;;;;;;0.10;0.10;;;;;;;;;;5145004;27;20010;-92
2024/04/24 04:30:06;;;;;;;0.05;0.05;;;5.30;99.90;;;;;;5141918;27;20097;-93
2024/04/24 04:32:33;;;;;;;0.10;0.10;;;;;;;;;;5116892;27;20010;-93
2024/04/24 04:34:59;;;;;;;0.00;0.00;;;;;;;;;;5140245;27;20010;-93
2024/04/24 04:37:24;;;;;;;0.10;0.10;;;;;;;;;;5138742;27;20056;-93
2024/04/24 04:39:51;;;;;;;0.00;0.00;;;;;;;;;;5144453;27;20009;-92
2024/04/24 04:42:17;;;;;;;0.10;0.10;;;;;;;;;;5129768;27;20016;-93
2024/04/24 04:44:43;;;;;;;0.10;0.10;;;;;;;;;;5107330;27;20002;-94
2024/04/24 04:47:09;;;;;;;0.10;0.10;;;;;;;;;;5139394;27;20005;-94
2024/04/24 04:49:35;;;;;;;0.10;0.10;;;;;;;;;;5136709;27;20109;-94
2024/04/24 04:52:01;;;;;;;0.10;0.10;;;;;;;;;;5145690;27;20006;-92
2024/04/24 04:54:27;;;;;;;0.10;0.10;;;;;;;;;;5112185;27;20006;-93
2024/04/24 04:56:53;;;;;;;0.10;0.10;;;;;;;;;;5114341;27;20055;-93
2024/04/24 04:59:19;;;;;;;0.00;0.00;;;;;;;;;;5122587;27;20001;-91
2024/04/24 05:01:45;;;;;;;0.10;0.10;;;;;;;;;;5142780;27;20005;-91
2024/04/24 05:04:11;;;;;;;0.00;0.00;;;;;;;;;;5152377;27;20038;-91
2024/04/24 05:06:37;;;;;;;0.10;0.10;;;;;;;;;;5144093;27;20022;-92
2024/04/24 05:09:03;;;;;;;0.10;0.10;;;;;;;;;;5148980;27;20020;-94
2024/04/24 05:11:29;;;;;;;0.00;0.00;;;;;;;;;;5157539;27;20066;-94
2024/04/24 05:13:55;;;;;;;0.10;0.10;;;;;;;;;;5139183;27;20028;-92
2024/04/24 05:16:21;;;;;;;0.10;0.10;;;;;;;;;;5128767;27;20001;-94
2024/04/24 05:18:47;;;;;;;0.08;0.08;;;;;;;;;;5127124;27;20022;-93
2024/04/24 05:21:13;;;;;;;0.00;0.00;;;;;;;;;;5120384;27;20001;-92
2024/04/24 05:23:39;;;;;;;0.08;0.08;;;;;;;;;;5126618;27;20016;-93
2024/04/24 05:29:07;;;;;;;0.08;0.08;;;;;;;;;;5118825;27;20148;-93
2024/04/24 05:31:35;;;;;;;0.00;0.00;;;5.70;99.90;;;;;;5147249;27;20003;-93
2024/04/24 05:34:01;;;;;;;0.00;0.00;;;;;;;;;;5117018;27;20024;-93
2024/04/24 05:36:27;;;;;;;0.10;0.10;;;;;;;;;;5151809;27;20014;-93
2024/04/24 05:38:53;;;;;;;0.00;0.00;;;;;;;;;;5146705;27;20392;-92
2024/04/24 05:41:19;;;;;;;0.10;0.10;;;;;;;;;;5146016;27;20013;-92
2024/04/24 05:43:45;;;;;;;0.10;0.10;;;;;;;;;;5140725;27;20055;-94
2024/04/24 05:46:11;;;;;;;0.10;0.10;;;;;;;;;;5126935;27;20002;-94
2024/04/24 05:48:37;;;;;;;0.00;0.00;;;;;;;;;;5150237;27;20014;-92
2024/04/24 05:51:06;;;;;;;0.10;0.10;;;;;;;;;;5129101;27;20366;-92
2024/04/24 05:53:32;;;;;;;0.00;0.00;;;;;;;;;;5144645;27;20026;-94
2024/04/24 05:55:58;;;;;;;0.10;0.10;;;;;;;;;;5120323;27;20020;-94
2024/04/24 05:58:24;;;;;;;0.00;0.00;;;;;;;;;;5122191;27;20039;-93
2024/04/24 06:00:50;;;;;;;0.10;0.10;;;;;;;;;;5125595;27;20090;-90
2024/04/24 06:03:16;;;;;;;0.10;0.10;;;;;;;;;;5124971;27;20034;-94
2024/04/24 06:05:42;;;;;;;0.00;0.00;;;;;;;;;;5124965;27;20010;-92
2024/04/24 06:08:08;;;;;;;0.10;0.10;;;;;;;;;;5124635;27;20440;-92
2024/04/24 06:10:34;;;;;;;0.10;0.10;;;;;;;;;;5138162;27;20053;-93
2024/04/24 06:13:00;;;;;;;0.03;0.03;;;;;;;;;;5143011;27;20001;-92
2024/04/24 06:15:28;;;;;;;0.03;0.03;;;;;;;;;;5121239;27;20050;-93
2024/04/24 06:17:54;;;;;;;0.10;0.10;;;;;;;;;;5109080;27;20002;-93
2024/04/24 06:20:21;;;;;;;0.00;0.00;;;;;;;;;;5138326;27;20008;-93
2024/04/24 06:22:47;;;;;;;0.10;0.10;;;;;;;;;;5115272;27;20013;-92
2024/04/24 06:25:13;;;;;;;0.00;0.00;;;;;;;;;;5133857;27;20005;-92
2024/04/24 06:27:39;;;;;;;0.05;0.05;;;;;;;;;;5130655;27;20010;-93
2024/04/24 06:30:06;;;;;;;0.10;0.10;;;;;;;;;;5149172;27;20020;-93
2024/04/24 06:32:32;;;;;;;0.00;0.00;;;;;;;;;;5152290;27;20001;-94
2024/04/24 06:34:59;;;;;;;0.10;0.10;;;;;;;;;;5143159;27;20021;-93
2024/04/24 06:37:25;;;;;;;0.00;0.00;;;;;;;;;;5148077;27;20078;-92
2024/04/24 06:39:51;;;;;;;0.00;0.00;;;;;;;;;;5156863;27;20029;-92
2024/04/24 06:42:17;;;;;;;0.10;0.10;;;;;;;;;;5125653;27;20034;-92
2024/04/24 06:44:43;;;;;;;0.00;0.00;;;;;;;;;;5146868;27;20006;-93
2024/04/24 06:47:10;;;;;;;0.10;0.10;;;;;;;;;;5137576;27;20337;-92
2024/04/24 06:49:36;;;;;;;0.00;0.00;;;;;;;;;;5137736;27;20009;-92
2024/04/24 06:52:03;;;;;;;0.00;0.00;;;;;;;;;;5138820;27;20002;-92
2024/04/24 06:54:29;;;;;;;0.00;0.00;;;;;;;;;;5125899;27;20013;-91
2024/04/24 06:56:58;;;;;;;0.10;0.10;;;;;;;;;;5128070;27;20054;-90
2024/04/24 06:59:24;;;;;;;0.10;0.10;;;;;;;;;;5146922;27;20016;-92
2024/04/24 07:01:51;;;;;;;0.10;0.10;;;;;;;;;;5129154;27;20474;-92
2024/04/24 07:04:17;;;;;;;0.10;0.10;;;;;;;;;;5127434;27;20009;-90
2024/04/24 07:06:43;;;;;;;0.00;0.00;;;;;;;;;;5144701;27;20010;-91
2024/04/24 07:09:09;;;;;;;0.00;0.00;;;;;;;;;;5147792;27;20024;-91
2024/04/24 07:11:35;;;;;;;0.10;0.10;;;;;;;;;;5148016;27;20010;-92
2024/04/24 07:14:01;;;;;;;0.03;0.03;;;;;;;;;;5142377;27;20002;-91
2024/04/24 07:16:28;;;;;;;0.10;0.10;;;;;;;;;;5142659;27;20017;-94
2024/04/24 07:18:54;;;;;;;0.00;0.00;;;;;;;;;;5146409;27;20011;-92
2024/04/24 07:21:20;;;;;;;0.05;0.05;;;;;;;;;;5147846;27;20016;-93
2024/04/24 07:23:46;;;;;;;0.00;0.00;;;;;;;;;;5150557;27;20010;-91
2024/04/24 07:26:12;;;;;;;0.08;0.08;;;;;;;;;;5156541;27;20008;-93
2024/04/24 07:28:38;;;;;;;0.00;0.00;;;;;;;;;;5145054;27;20041;-92
2024/04/24 07:31:04;;;;;;;0.10;0.10;;;;;;;;;;5148397;27;20002;-91
2024/04/24 07:33:30;;;;;;;0.10;0.10;;;;;;;;;;5150748;27;20028;-92
2024/04/24 07:35:57;;;;;;;0.10;0.10;;;;;;;;;;5164826;27;20042;-93
2024/04/24 07:38:23;;;;;;;0.10;0.10;;;;;;;;;;5127628;27;20005;-93
2024/04/24 07:40:49;;;;;;;0.10;0.10;;;;;;;;;;5127939;27;20071;-93
2024/04/24 07:43:15;;;;;;;0.10;0.10;;;;;;;;;;5137101;27;20014;-93
2024/04/24 07:45:42;;;;;;;0.05;0.05;;;;;;;;;;5149631;27;20006;-92
2024/04/24 07:48:08;;;;;;;0.10;0.10;;;;;;;;;;5153807;27;20014;-91
2024/04/24 07:50:34;;;;;;;0.00;0.00;;;;;;;;;;5149008;27;20852;-91
2024/04/24 07:53:01;;;;;;;0.00;0.00;;;;;;;;;;5151393;27;20006;-92
2024/04/24 07:55:27;;;;;;;0.03;0.03;;;;;;;;;;5137573;27;20001;-93
2024/04/24 07:57:53;;;;;;;0.10;0.10;;;;;;;;;;5134011;27;20010;-92
2024/04/24 08:00:19;;;;;;;0.00;0.00;;;;;;;;;;5148779;27;20002;-91
2024/04/24 08:02:45;;;;;;;0.10;0.10;;;;;;;;;;5150346;27;20481;-94
2024/04/24 08:05:11;;;;;;;0.10;0.10;;;;;;;;;;5155817;27;20020;-92
2024/04/24 08:07:37;;;;;;;0.10;0.10;;;;;;;;;;5119975;27;20001;-92
2024/04/24 08:10:03;;;;;;;0.10;0.10;;;;;;;;;;5133377;27;20001;-91
2024/04/24 08:12:30;;;;;;;0.10;0.10;;;;;;;;;;5151165;27;20036;-93
2024/04/24 08:14:56;;;;;;;0.00;0.00;;;;;;;;;;5124754;27;20013;-93
2024/04/24 08:17:22;;;;;;;0.00;0.00;;;;;;;;;;5158769;27;20033;-93
2024/04/24 08:19:48;;;;;;;0.10;0.10;;;;;;;;;;5127588;27;20005;-94
2024/04/24 08:22:14;;;;;;;0.00;0.00;;;;;;;;;;5149007;27;20019;-93
2024/04/24 08:24:40;;;;;;;0.10;0.10;;;;;;;;;;5124049;27;20006;-92
2024/04/24 08:27:06;;;;;;;0.10;0.10;;;;;;;;;;5153624;27;20020;-93
2024/04/24 08:29:32;;;;;;;0.10;0.10;;;;;;;;;;5137329;27;20006;-91
2024/04/24 08:31:59;;;;;;;0.00;0.00;;;;;;;;;;5151867;27;20469;-92
2024/04/24 08:34:25;;;;;;;0.10;0.10;;;;;;;;;;5122733;27;20065;-91
2024/04/24 08:36:51;;;;;;;0.00;0.00;;;;;;;;;;5141107;27;20064;-90
2024/04/24 08:39:17;;;;;;;0.00;0.00;;;;;;;;;;5125211;27;20005;-92
2024/04/24 08:41:43;;;;;;;0.00;0.00;;;;;;;;;;5149485;27;20026;-93
2024/04/24 08:44:11;;;;;;;0.00;0.00;;;7.90;99.90;;;;;;5149541;27;20013;-93
2024/04/24 08:46:38;;;;;;;0.00;0.00;;;;;;;;;;5116065;27;20013;-94
2024/04/24 08:49:06;;;;;;;0.10;0.10;;;;;;;;;;5148974;27;20009;-93
2024/04/24 08:51:32;;;;;;;0.00;0.00;;;;;;;;;;5118595;27;20102;-92
2024/04/24 08:54:03;;;;;;;0.10;0.10;;;8.10;99.90;;;;;;5133881;27;20024;-93
2024/04/24 08:56:42;;;;;;;0.10;0.10;;;8.20;99.90;;;;;;5122088;27;20016;-92
2024/04/24 08:59:17;;;;;;;0.10;0.10;;;8.30;99.90;;;;;;5100159;27;20473;-90
2024/04/24 09:01:49;;;;;;;0.10;0.10;;;8.40;99.90;;;;;;5120244;27;20038;-92
2024/04/24 09:04:17;;;;;;;0.10;0.10;;;8.60;99.90;;;;;;5104391;27;20018;-91
2024/04/24 09:06:43;;;;;;;0.10;0.10;;;;;;;;;;5093308;28;20010;-92
2024/04/24 09:09:09;;;;;;;0.00;0.00;;;8.60;99.90;;;;;;5153710;27;20013;-92
2024/04/24 09:11:35;;;;;;;0.10;0.10;;;;;;;;;;5098596;27;20037;-91
2024/04/24 09:14:02;;;;;;;0.10;0.10;;;8.90;99.90;;;;;;5148603;27;20018;-92
2024/04/24 09:16:31;;;;;;;0.10;0.10;;;8.80;99.90;;;;;;5107026;27;20009;-91
2024/04/24 09:19:00;;;;;;;0.00;0.00;;;8.90;99.90;;;;;;5114473;27;20001;-92
2024/04/24 09:21:28;;;;;;;0.00;0.00;;;8.90;99.90;;;;;;5114275;27;20005;-92
2024/04/24 09:23:54;;;;;;;0.00;0.00;;;;;;;;;;5109839;28;20012;-93
2024/04/24 09:26:21;;;;;;;0.10;0.10;;;;;;;;;;5151530;27;20006;-93
2024/04/24 09:28:47;;;;;;;0.00;0.00;;;;;;;;;;5155713;27;20047;-93
2024/04/24 09:31:13;;;;;;;0.10;0.10;;;;;;;;;;5144394;27;20002;-92
2024/04/24 09:33:39;;;;;;;0.00;0.00;;;;;;;;;;5149994;27;20006;-93
2024/04/24 09:36:05;;;;;;;0.10;0.10;;;;;;;;;;5155895;27;20060;-94
2024/04/24 09:38:32;;;;;;;0.10;0.10;;;9.10;99.90;;;;;;5154150;27;20005;-92
2024/04/24 09:41:02;;;;;;;0.10;0.10;;;9.10;99.90;;;;;;5116964;27;20062;-92
2024/04/24 09:43:28;;;;;;;0.10;0.10;;;9.20;99.90;;;;;;5102085;27;20017;-93
2024/04/24 09:45:55;;;;;;;0.10;0.10;;;;;;;;;;5130673;27;20010;-91
2024/04/24 09:48:21;;;;;;;0.00;0.00;;;;;;;;;;5157247;27;20480;-91
2024/04/24 09:50:50;;;;;;;0.10;0.10;;;;;;;;;;5141727;27;20013;-94
2024/04/24 09:53:19;;;;;;;0.05;0.05;;;9.40;99.90;;;;;;5152349;27;20011;-91
2024/04/24 09:55:52;;;;;;;0.00;0.00;;;9.60;99.90;;;;;;5114304;27;20002;-92
2024/04/24 09:58:20;;;;;;;0.00;0.00;;;9.50;99.90;;;;;;5162130;27;20009;-92
2024/04/24 10:00:46;;;;;;;0.00;0.00;;;9.80;99.90;;;;;;5121221;28;20013;-93
2024/04/24 10:03:15;;;;;;;0.08;0.08;;;9.90;99.90;;;;;;5109157;27;20017;-92
2024/04/24 10:05:45;;;;;;;0.00;0.00;;;10.10;99.00;;;;;;5130277;27;20006;-91
2024/04/24 10:08:13;;;;;;;0.10;0.10;;;10.10;99.30;;;;;;5115013;27;20013;-92
2024/04/24 10:10:43;;;;;;;0.00;0.00;;;10.40;98.80;;;;;;5128515;27;20005;-92
2024/04/24 10:13:09;;;;;;;0.00;0.00;;;;;;;;;;5105067;27;20025;-90
2024/04/24 10:15:49;;;;;;;0.00;0.00;;;10.60;99.60;;;;;;5159289;27;20063;-91
2024/04/24 10:18:15;;;;;;;;;;;11.80;99.90;;;;;;5106549;27;20469;-90
2024/04/24 10:20:43;;;;;;;0.00;0.00;;;10.30;98.30;;;;;;5110680;28;19946;-92
2024/04/24 10:23:09;;;;;;;0.00;0.00;;;;;;;;;;5117601;27;20002;-93
2024/04/24 10:25:35;;;;;;;0.10;0.10;;;;;;;;;;5132141;27;20063;-92
2024/04/24 10:28:03;;;;;;;0.00;0.00;;;10.60;98.70;;;;;;5157334;27;20009;-92
2024/04/24 10:30:30;;;;;;;0.00;0.00;;;10.60;97.80;;;;;;5101074;27;20006;-90
2024/04/24 10:32:56;;;;;;;0.00;0.00;;;;;;;;;;5106782;27;20112;-92
2024/04/24 10:35:25;;;;;;;0.00;0.00;;;10.80;98.20;;;;;;5135305;27;20031;-93
2024/04/24 10:37:58;;;;;;;0.00;0.00;;;10.80;97.30;;;;;;5109784;27;20021;-92
2024/04/24 10:40:27;;;;;;;0.00;0.00;;;10.80;98.40;;;;;;5108456;27;19998;-92
2024/04/24 10:43:00;;;;;;;0.00;0.00;;;10.90;97.70;;;;;;5105716;27;20062;-90
2024/04/24 10:45:27;;;;;;;0.00;0.00;;;10.90;98.80;;;;;;5121815;27;20621;-92
2024/04/24 10:47:54;;;;;;;0.00;0.00;;;11.00;98.70;;;;;;5114784;27;20027;-91
2024/04/24 10:50:20;;;;;;;0.00;0.00;;;;;;;;;;5113955;27;20001;-92
2024/04/24 10:52:49;;;;;;;0.00;0.00;;;;;;;;;;5159638;27;20014;-92
2024/04/24 10:55:19;;;;;;;0.00;0.00;;;;;;;;;;5149082;27;20033;-92
2024/04/24 10:57:50;;;;;;;0.10;0.10;;;11.60;98.70;;;;;;5127367;27;20006;-92
2024/04/24 11:00:17;;;;;;;0.00;0.00;;;11.60;99.10;;;;;;5109571;27;20077;-92
2024/04/24 11:02:44;;;;;;;0.00;0.00;;;11.50;99.30;;;;;;5112384;27;20356;-92
2024/04/24 11:05:10;;;;;;;0.00;0.00;;;;;;;;;;5116070;27;20008;-91
2024/04/24 11:07:36;;;;;;;0.00;0.00;;;;;;;;;;5132203;27;20016;-92
2024/04/24 11:10:03;;;;;;;0.00;0.00;;;11.20;98.20;;;;;;5137617;27;20010;-90
2024/04/24 11:12:29;;;;;;;0.00;0.00;;;;;;;;;;5095697;28;20029;-93
2024/04/24 11:14:55;;;;;;;0.00;0.00;;;;;;;;;;5126566;27;20018;-91
2024/04/24 11:17:24;;;;;;;0.00;0.00;;;11.40;98.60;;;;;;5156185;27;20358;-92
2024/04/24 11:19:50;;;;;;;0.00;0.00;;;;;;;;;;5102875;27;20014;-91
2024/04/24 11:22:28;;;;;;;0.00;0.00;;;11.60;96.20;;;;;;5154084;27;20044;-90
2024/04/24 11:24:57;;;;;;;0.00;0.00;;;;;;;;;;5091175;27;20178;-92
2024/04/24 11:27:24;;;;;;;0.00;0.00;;;;;;;;;;5124321;27;20005;-89
2024/04/24 11:29:50;;;;;;;0.00;0.00;;;;;;;;;;5155521;27;20243;-90
2024/04/24 11:32:16;;;;;;;0.00;0.00;;;;;;;;;;5139910;27;20018;-92
2024/04/24 11:34:43;;;;;;;0.00;0.00;;;;;;;;;;5144701;27;20008;-92
2024/04/24 11:37:09;;;;;;;0.00;0.00;;;;;;;;;;5162823;27;20046;-93
2024/04/24 11:39:35;;;;;;;0.00;0.00;;;;;;;;;;5140456;27;20017;-87
2024/04/24 11:42:01;;;;;;;0.00;0.00;;;;;;;;;;5149079;27;20026;-93
2024/04/24 11:44:28;;;;;;;0.00;0.00;;;;;;;;;;5153633;27;20480;-93
2024/04/24 11:46:56;;;;;;;0.00;0.00;;;;;;;;;;5148868;27;20002;-90
2024/04/24 11:49:23;;;;;;;0.00;0.00;;;;;;;;;;5125401;27;20014;-92
2024/04/24 11:51:49;;;;;;;0.00;0.00;;;;;;;;;;5142321;27;20001;-91
2024/04/24 11:54:16;;;;;;;0.00;0.00;;;;;;;;;;5144731;27;20013;-92
2024/04/24 11:56:44;;;;;;;0.00;0.00;;;;;;;;;;5129393;27;20013;-93
2024/04/24 11:59:11;;;;;;;0.10;0.10;;;8.60;99.90;;;;;;5145844;27;20006;-91
2024/04/24 12:01:40;;;;;;;0.08;0.08;;;8.40;99.90;;;;;;5094202;27;20006;-91
2024/04/24 12:04:07;;;;;;;0.10;0.10;;;;;;;;;;5103851;27;20015;-92
2024/04/24 12:06:40;;;;;;;0.10;0.10;;;8.00;99.90;;;;;;5141264;27;20050;-92
2024/04/24 12:09:10;;;;;;;0.10;0.10;;;8.10;99.90;;;;;;5106391;28;20416;-92
2024/04/24 12:11:40;;;;;;;0.10;0.10;;;8.20;99.90;;;;;;5095597;27;20002;-92
2024/04/24 12:14:06;;;;;;;0.10;0.10;;;;;;;;;;5154008;27;20018;-92
2024/04/24 12:16:35;;;;;;;0.00;0.00;;;;;;;;;;5148632;27;20005;-91
2024/04/24 12:19:01;;;;;;;0.00;0.00;;;;;;;;;;5159191;27;20010;-93
2024/04/24 12:21:27;;;;;;;0.10;0.10;;;;;;;;;;5155238;27;20024;-92
2024/04/24 12:23:53;;;;;;;0.00;0.00;;;;;;;;;;5149057;27;20020;-92
2024/04/24 12:26:19;;;;;;;0.10;0.10;;;;;;;;;;5131024;27;20014;-91
2024/04/24 12:28:45;;;;;;;0.00;0.00;;;;;;;;;;5145744;27;20009;-91
2024/04/24 12:31:11;;;;;;;0.00;0.00;;;;;;;;;;5144640;27;19997;-90
2024/04/24 12:33:40;;;;;;;0.10;0.10;;;;;;;;;;5142878;27;20338;-89
2024/04/24 12:36:07;;;;;;;0.10;0.10;;;;;;;;;;5147335;27;20010;-91
2024/04/24 12:38:33;;;;;;;0.00;0.00;;;;;;;;;;5157981;27;20005;-91
2024/04/24 12:40:59;;;;;;;0.00;0.00;;;;;;;;;;5133553;27;20001;-90
2024/04/24 12:43:25;;;;;;;0.00;0.00;;;;;;;;;;5135072;27;20005;-90
2024/04/24 12:45:51;;;;;;;0.00;0.00;;;;;;;;;;5129179;27;20001;-90
2024/04/24 12:48:17;;;;;;;0.00;0.00;;;;;;;;;;5150677;27;20050;-91
2024/04/24 12:50:43;;;;;;;0.00;0.00;;;;;;;;;;5130393;27;20020;-91
2024/04/24 12:53:09;;;;;;;0.00;0.00;;;;;;;;;;5166311;27;20017;-92
2024/04/24 12:55:35;;;;;;;0.00;0.00;;;;;;;;;;5152512;27;20005;-91
2024/04/24 13:01:24;;;;;;;0.00;0.00;;;;;;;;;;5126144;27;20009;-91
2024/04/24 13:03:50;;;;;;;0.00;0.00;;;;;;;;;;5129331;27;20006;-90
2024/04/24 13:06:20;;;;;;;0.00;0.00;;;11.90;99.90;;;;;;5149095;27;20014;-91
2024/04/24 13:09:25;;;;;;;;;;;;;;;;;;;;;
2024/04/24 13:11:52;;;;;;;0.00;0.00;;;;;;;;;;5079914;27;20016;-89
2024/04/24 13:14:44;;;;;;;0.00;0.00;;;11.80;99.30;;;;;;5153625;27;20005;-92
2024/04/24 13:17:10;;;;;;;0.00;0.00;;;;;;;;;;5103381;28;20569;-91
2024/04/24 13:19:36;;;;;;;0.00;0.00;;;;;;;;;;5119516;27;20041;-89
2024/04/24 13:22:03;;;;;;;0.00;0.00;;;;;;;;;;5138943;27;20020;-91
2024/04/24 13:24:29;;;;;;;0.00;0.00;;;;;;;;;;5144431;27;20063;-90
2024/04/24 13:26:55;;;;;;;0.00;0.00;;;;;;;;;;5119036;27;20024;-89
2024/04/24 13:29:22;;;;;;;0.05;0.05;;;;;;;;;;5132217;27;20001;-90
2024/04/24 13:31:47;;;;;;;0.00;0.00;;;;;;;;;;5136412;27;20020;-90
2024/04/24 13:34:14;;;;;;;0.00;0.00;;;;;;;;;;5170369;27;20005;-90
2024/04/24 13:36:40;;;;;;;0.00;0.00;;;;;;;;;;5153274;27;20029;-92
2024/04/24 13:39:06;;;;;;;0.10;0.10;;;;;;;;;;5158456;27;20002;-92
2024/04/24 13:41:32;;;;;;;0.00;0.00;;;;;;;;;;5130276;27;20016;-92
2024/04/24 13:43:58;;;;;;;0.00;0.00;;;;;;;;;;5129343;27;20021;-91
2024/04/24 13:46:24;;;;;;;0.00;0.00;;;;;;;;;;5156513;27;20045;-91
2024/04/24 13:48:50;;;;;;;0.00;0.00;;;;;;;;;;5128524;27;20021;-89
2024/04/24 13:51:18;;;;;;;0.00;0.00;;;;;;;;;;5157001;27;20456;-91
2024/04/24 13:53:45;;;;;;;0.00;0.00;;;;;;;;;;5148690;27;20009;-92
2024/04/24 13:56:11;;;;;;;0.00;0.00;;;;;;;;;;5155701;27;20009;-92
2024/04/24 13:58:38;;;;;;;0.00;0.00;;;;;;;;;;5123308;27;20002;-90
2024/04/24 14:38:12;;;;;;;0.00;0.00;;;;;;;;;;5198597;27;20364;-90
2024/04/24 14:40:38;;;;;;;0.00;0.00;;;;;;;;;;5159034;27;20196;-90
2024/04/24 14:43:04;;;;;;;0.00;0.00;;;;;;;;;;5205237;27;20051;-91
2024/04/24 14:45:30;;;;;;;0.00;0.00;;;;;;;;;;5145167;27;20005;-89
2024/04/24 15:16:19;;;;;;;0.10;0.10;;;;;;;;;;5165664;27;20037;-88
2024/04/24 15:18:47;;;;;;;0.10;0.10;;;;;;;;;;5139630;27;20021;-89
2024/04/24 15:21:13;;;;;;;0.10;0.10;;;;;;;;;;5168726;27;20001;-88
2024/04/24 15:23:39;;;;;;;0.10;0.10;;;;;;;;;;5152206;27;20051;-89
2024/04/24 15:26:05;;;;;;;0.10;0.10;;;;;;;;;;5174713;27;20063;-89
2024/04/24 15:28:31;;;;;;;0.10;0.10;;;;;;;;;;5173375;27;20450;-88
2024/04/24 15:30:57;;;;;;;0.10;0.10;;;;;;;;;;5157038;27;20004;-88
2024/04/24 15:33:23;;;;;;;0.10;0.10;;;7.60;99.90;;;;;;5171644;27;20011;-89
2024/04/24 15:35:48;;;;;;;0.10;0.10;;;7.70;99.90;;;;;;5163926;27;20004;-87
2024/04/24 15:38:15;;;;;;;0.10;0.10;;;;;;;;;;5160786;27;20056;-88
2024/04/24 15:40:41;;;;;;;0.00;0.00;;;;;;;;;;5156182;27;20012;-88
2024/04/24 15:43:06;;;;;;;0.10;0.10;;;8.10;99.90;;;;;;5159055;27;20008;-88
2024/04/24 15:45:32;;;;;;;0.10;0.10;;;;;;;;;;5160212;27;20020;-88
2024/04/24 15:47:58;;;;;;;0.10;0.10;;;;;;;;;;5142248;27;20008;-88
2024/04/24 15:50:24;;;;;;;0.10;0.10;;;;;;;;;;5161388;27;20721;-88
2024/04/24 15:52:50;;;;;;;0.10;0.10;;;;;;;;;;5175973;27;20015;-87
2024/04/24 15:55:16;;;;;;;0.10;0.10;;;8.50;99.90;;;;;;5167496;27;20023;-88
2024/04/24 15:57:41;;;;;;;0.10;0.10;;;;;;;;;;5175347;27;20471;-88
2024/04/24 16:00:08;;;;;;;0.10;0.10;;;8.50;99.90;;;;;;5172168;27;20518;-87
2024/04/24 16:02:33;;;;;;;0.10;0.10;;;;;;;;;;5144013;27;20048;-88
2024/04/24 16:04:59;;;;;;;0.03;0.03;;;8.10;99.90;;;;;;5157965;27;20027;-88
2024/04/24 16:07:25;;;;;;;0.10;0.10;;;;;;;;;;5143528;27;20019;-87
2024/04/24 16:09:51;;;;;;;0.10;0.10;;;7.90;99.90;;;;;;5147032;27;20005;-88
2024/04/24 16:12:17;;;;;;;0.10;0.10;;;;;;;;;;5151190;27;20470;-88
2024/04/24 16:14:42;;;;;;;0.10;0.10;;;;;;;;;;5155200;27;20012;-87
2024/04/24 16:17:09;;;;;;;0.10;0.10;;;;;;;;;;5178798;27;20016;-87
2024/04/24 16:19:35;;;;;;;0.10;0.10;;;;;;;;;;5168357;27;20005;-87
2024/04/24 16:22:01;;;;;;;0.10;0.10;;;;;;;;;;5153657;27;20000;-87
2024/04/24 16:24:27;;;;;;;0.10;0.10;;;;;;;;;;5162436;27;20018;-87
2024/04/24 16:26:53;;;;;;;0.10;0.10;;;;;;;;;;5151725;27;20577;-88
2024/04/24 16:29:19;;;;;;;0.00;0.00;;;;;;;;;;5145845;27;19997;-88
2024/04/24 16:31:44;;;;;;;0.10;0.10;;;;;;;;;;5146161;27;20037;-86
2024/04/24 16:34:10;;;;;;;0.10;0.10;;;6.70;99.90;;;;;;5164061;27;20000;-87
2024/04/24 16:36:35;;;;;;;0.10;0.10;;;6.50;99.90;;;;;;5147610;27;20001;-87
2024/04/24 16:39:01;;;;;;;0.10;0.10;;;;;;;;;;5142495;27;20548;-88
2024/04/24 16:41:27;;;;;;;0.10;0.10;;;;;;;;;;5148325;27;20076;-87
2024/04/24 16:43:55;;;;;;;0.10;0.10;;;;;;;;;;5168249;27;20005;-87
2024/04/24 16:46:21;;;;;;;0.10;0.10;;;;;;;;;;5139527;27;20004;-87